createdAt,value
2018-09-04T00:00:33.164Z,991.01
2018-09-04T00:01:43.290Z,991.03
2018-09-04T00:02:53.190Z,991.02
2018-09-04T00:04:02.819Z,991.01
2018-09-04T00:05:12.945Z,991.04
2018-09-04T00:06:22.802Z,991.03
2018-09-04T00:07:32.930Z,991.06
2018-09-04T00:08:42.783Z,991.05
2018-09-04T00:09:52.683Z,991.07
2018-09-04T00:11:02.538Z,991.05
2018-09-04T00:12:12.657Z,991.04
2018-09-04T00:13:22.509Z,990.99
2018-09-04T00:14:32.409Z,991.01
2018-09-04T00:15:42.540Z,991.03
2018-09-04T00:16:52.671Z,991.01
2018-09-04T00:18:02.523Z,991.01
2018-09-04T00:19:12.372Z,991.04
2018-09-04T00:20:22.503Z,991.09
2018-09-04T00:21:32.402Z,991.01
2018-09-04T00:22:41.980Z,990.97
2018-09-04T00:23:51.827Z,991.01
2018-09-04T00:25:01.685Z,991.01
2018-09-04T00:26:11.258Z,991.02
2018-09-04T00:27:20.882Z,991.02
2018-09-04T00:28:30.733Z,991.01
2018-09-04T00:29:40.870Z,990.98
2018-09-04T00:30:50.718Z,991.04
2018-09-04T00:32:00.567Z,991.02
2018-09-04T00:33:10.752Z,991.05
2018-09-04T00:34:20.883Z,991.06
2018-09-04T00:35:31.177Z,991.04
2018-09-04T00:36:41.028Z,991.03
2018-09-04T00:37:51.159Z,991.05
2018-09-04T00:39:01.063Z,991.02
2018-09-04T00:40:10.916Z,991.05
2018-09-04T00:41:19.944Z,991.06
2018-09-04T00:42:29.795Z,991.05
2018-09-04T00:43:39.923Z,991.06
2018-09-04T00:44:51.513Z,991.07
2018-09-04T00:46:01.665Z,991.12
2018-09-04T00:47:11.515Z,991.12
2018-09-04T00:48:21.640Z,991.16
2018-09-04T00:49:31.493Z,991.16
2018-09-04T00:50:41.397Z,991.14
2018-09-04T00:51:50.975Z,991.13
2018-09-04T00:53:00.826Z,991.12
2018-09-04T00:54:10.679Z,991.12
2018-09-04T00:55:20.258Z,991.08
2018-09-04T00:56:30.436Z,991.12
2018-09-04T00:57:40.011Z,991.1
2018-09-04T00:58:49.913Z,991.09
2018-09-04T00:59:59.909Z,991.08
2018-09-04T01:01:10.041Z,991.1
2018-09-04T01:02:19.670Z,991.05
2018-09-04T01:03:29.801Z,991.07
2018-09-04T01:04:39.651Z,991.07
2018-09-04T01:05:49.227Z,991.05
2018-09-04T01:06:58.818Z,991.01
2018-09-04T01:08:08.994Z,991.03
2018-09-04T01:09:18.855Z,991.04
2018-09-04T01:10:28.430Z,991.02
2018-09-04T01:11:38.561Z,991.05
2018-09-04T01:12:48.685Z,991.03
2018-09-04T01:13:58.587Z,991.04
2018-09-04T01:15:08.725Z,991.02
2018-09-04T01:16:18.857Z,991.03
2018-09-04T01:17:28.434Z,991.05
2018-09-04T01:18:38.282Z,991.08
2018-09-04T01:19:48.472Z,991.07
2018-09-04T01:20:58.327Z,991.1
2018-09-04T01:22:08.450Z,991.1
2018-09-04T01:23:18.303Z,991.13
2018-09-04T01:24:28.427Z,991.11
2018-09-04T01:25:38.276Z,991.13
2018-09-04T01:26:48.405Z,991.1
2018-09-04T01:27:58.536Z,991.12
2018-09-04T01:29:08.383Z,991.15
2018-09-04T01:30:17.691Z,991.13
2018-09-04T01:31:27.813Z,991.11
2018-09-04T01:32:37.682Z,991.14
2018-09-04T01:33:47.807Z,991.16
2018-09-04T01:34:57.932Z,991.16
2018-09-04T01:36:07.781Z,991.13
2018-09-04T01:37:17.957Z,991.13
2018-09-04T01:38:28.088Z,991.13
2018-09-04T01:39:37.938Z,991.13
2018-09-04T01:40:48.065Z,991.13
2018-09-04T01:41:58.191Z,991.12
2018-09-04T01:43:08.093Z,991.11
2018-09-04T01:44:17.669Z,991.1
2018-09-04T01:45:27.527Z,991.09
2018-09-04T01:46:37.392Z,991.12
2018-09-04T01:47:47.241Z,991.12
2018-09-04T01:48:57.151Z,991.12
2018-09-04T01:50:07.277Z,991.14
2018-09-04T01:51:16.850Z,991.12
2018-09-04T01:52:26.699Z,991.12
2018-09-04T01:53:36.819Z,991.12
2018-09-04T01:54:46.996Z,991.09
2018-09-04T01:55:57.128Z,991.13
2018-09-04T01:57:07.263Z,991.08
2018-09-04T01:58:17.115Z,991.08
2018-09-04T01:59:27.246Z,991.09
2018-09-04T02:00:37.098Z,991.05
2018-09-04T02:01:47.216Z,991.08
2018-09-04T02:02:57.345Z,991.03
2018-09-04T02:04:07.471Z,991.08
2018-09-04T02:05:17.613Z,991.08
2018-09-04T02:06:27.512Z,991.11
2018-09-04T02:07:37.361Z,991.09
2018-09-04T02:08:47.484Z,991.12
2018-09-04T02:09:57.614Z,991.14
2018-09-04T02:11:06.927Z,991.12
2018-09-04T02:12:19.132Z,991.1
2018-09-04T02:13:29.259Z,991.1
2018-09-04T02:14:39.111Z,991.09
2018-09-04T02:15:49.244Z,991.11
2018-09-04T02:16:59.373Z,991.15
2018-09-04T02:18:09.267Z,991.11
2018-09-04T02:19:19.392Z,991.15
2018-09-04T02:20:29.242Z,991.14
2018-09-04T02:21:39.362Z,991.16
2018-09-04T02:22:49.210Z,991.17
2018-09-04T02:23:59.041Z,991.2
2018-09-04T02:25:09.165Z,991.21
2018-09-04T02:26:19.293Z,991.16
2018-09-04T02:27:29.421Z,991.14
2018-09-04T02:28:38.995Z,991.16
2018-09-04T02:29:48.895Z,991.17
2018-09-04T02:30:59.040Z,991.13
2018-09-04T02:32:09.167Z,991.14
2018-09-04T02:33:19.027Z,991.15
2018-09-04T02:34:29.182Z,991.13
2018-09-04T02:35:39.054Z,991.13
2018-09-04T02:36:48.940Z,991.13
2018-09-04T02:37:59.071Z,991.13
2018-09-04T02:39:08.923Z,991.18
2018-09-04T02:40:18.779Z,991.13
2018-09-04T02:41:28.973Z,991.13
2018-09-04T02:42:38.548Z,991.11
2018-09-04T02:43:48.404Z,991.15
2018-09-04T02:44:58.525Z,991.09
2018-09-04T02:46:08.379Z,991.12
2018-09-04T02:47:18.303Z,991.13
2018-09-04T02:48:28.154Z,991.14
2018-09-04T02:49:38.017Z,991.13
2018-09-04T02:50:48.146Z,991.09
2018-09-04T02:51:57.449Z,991.1
2018-09-04T02:53:07.359Z,991.11
2018-09-04T02:54:17.479Z,991.14
2018-09-04T02:55:27.606Z,991.09
2018-09-04T02:56:37.187Z,991.09
2018-09-04T02:57:47.040Z,991.09
2018-09-04T02:58:57.220Z,991.08
2018-09-04T03:00:07.075Z,991.05
2018-09-04T03:01:17.204Z,991.01
2018-09-04T03:02:27.354Z,991.02
2018-09-04T03:03:37.478Z,990.98
2018-09-04T03:04:47.650Z,990.99
2018-09-04T03:05:57.771Z,991.01
2018-09-04T03:07:07.631Z,990.99
2018-09-04T03:08:17.759Z,991.02
2018-09-04T03:09:27.884Z,990.99
2018-09-04T03:10:38.063Z,991
2018-09-04T03:11:47.915Z,990.99
2018-09-04T03:12:58.041Z,990.95
2018-09-04T03:14:08.166Z,990.97
2018-09-04T03:15:18.025Z,990.98
2018-09-04T03:16:28.153Z,990.95
2018-09-04T03:17:38.279Z,990.96
2018-09-04T03:18:48.415Z,990.96
2018-09-04T03:19:58.553Z,990.97
2018-09-04T03:21:08.729Z,991.01
2018-09-04T03:22:18.635Z,991.01
2018-09-04T03:23:28.760Z,991.02
2018-09-04T03:24:38.345Z,990.96
2018-09-04T03:25:48.469Z,990.94
2018-09-04T03:26:58.610Z,990.98
2018-09-04T03:28:08.513Z,990.96
2018-09-04T03:29:18.368Z,990.94
2018-09-04T03:30:28.273Z,990.93
2018-09-04T03:31:38.129Z,990.98
2018-09-04T03:32:48.258Z,990.97
2018-09-04T03:33:58.384Z,990.95
2018-09-04T03:35:08.239Z,991.01
2018-09-04T03:36:18.364Z,990.94
2018-09-04T03:37:27.944Z,990.95
2018-09-04T03:38:37.245Z,990.96
2018-09-04T03:39:47.428Z,990.95
2018-09-04T03:40:57.559Z,990.96
2018-09-04T03:42:07.417Z,990.97
2018-09-04T03:43:17.705Z,991
2018-09-04T03:44:27.674Z,990.99
2018-09-04T03:45:38.192Z,990.95
2018-09-04T03:46:47.770Z,990.94
2018-09-04T03:47:57.896Z,990.96
2018-09-04T03:49:08.033Z,990.97
2018-09-04T03:50:17.878Z,990.92
2018-09-04T03:51:28.057Z,990.9
2018-09-04T03:52:37.357Z,990.9
2018-09-04T03:53:47.478Z,990.87
2018-09-04T03:54:57.340Z,990.88
2018-09-04T03:56:06.643Z,990.88
2018-09-04T03:57:16.271Z,990.9
2018-09-04T03:58:25.853Z,990.9
2018-09-04T03:59:35.707Z,990.87
2018-09-04T04:00:45.283Z,990.91
2018-09-04T04:01:55.131Z,990.96
2018-09-04T04:03:05.262Z,990.94
2018-09-04T04:04:15.113Z,990.96
2018-09-04T04:05:24.961Z,990.98
2018-09-04T04:06:35.090Z,990.93
2018-09-04T04:07:44.943Z,990.98
2018-09-04T04:08:54.565Z,990.97
2018-09-04T04:10:04.144Z,990.95
2018-09-04T04:11:14.268Z,990.95
2018-09-04T04:12:24.394Z,990.96
2018-09-04T04:13:34.528Z,990.97
2018-09-04T04:14:44.706Z,990.94
2018-09-04T04:15:54.556Z,990.93
2018-09-04T04:17:04.429Z,990.94
2018-09-04T04:18:14.559Z,990.96
2018-09-04T04:19:24.678Z,990.96
2018-09-04T04:20:34.584Z,990.98
2018-09-04T04:21:44.712Z,991
2018-09-04T04:22:54.287Z,990.97
2018-09-04T04:24:04.527Z,990.99
2018-09-04T04:25:14.124Z,990.98
2018-09-04T04:26:24.302Z,991.02
2018-09-04T04:27:34.170Z,991.03
2018-09-04T04:28:44.297Z,991
2018-09-04T04:29:54.150Z,991.02
2018-09-04T04:31:04.290Z,991.02
2018-09-04T04:32:14.463Z,991.03
2018-09-04T04:33:24.316Z,991.03
2018-09-04T04:34:34.164Z,991.04
2018-09-04T04:35:44.294Z,991.05
2018-09-04T04:36:53.871Z,991.07
2018-09-04T04:38:03.998Z,991.1
2018-09-04T04:39:14.146Z,991.1
2018-09-04T04:40:23.726Z,991.14
2018-09-04T04:41:33.861Z,991.14
2018-09-04T04:42:43.725Z,991.11
2018-09-04T04:43:53.620Z,991.14
2018-09-04T04:45:03.755Z,991.09
2018-09-04T04:46:13.058Z,991.08
2018-09-04T04:47:23.241Z,991.09
2018-09-04T04:48:33.089Z,991.04
2018-09-04T04:49:43.218Z,991.04
2018-09-04T04:50:53.342Z,991.06
2018-09-04T04:52:02.912Z,991.11
2018-09-04T04:53:12.769Z,991.13
2018-09-04T04:54:22.894Z,991.1
2018-09-04T04:55:32.521Z,991.12
2018-09-04T04:56:42.394Z,991.12
2018-09-04T04:57:52.521Z,991.15
2018-09-04T04:59:02.652Z,991.11
2018-09-04T05:00:12.820Z,991.15
2018-09-04T05:01:23.293Z,991.15
2018-09-04T05:02:32.872Z,991.19
2018-09-04T05:03:43.001Z,991.2
2018-09-04T05:04:53.135Z,991.17
2018-09-04T05:06:02.993Z,991.19
2018-09-04T05:07:13.127Z,991.17
2018-09-04T05:08:22.702Z,991.18
2018-09-04T05:09:32.594Z,991.19
2018-09-04T05:10:42.446Z,991.18
2018-09-04T05:11:51.475Z,991.16
2018-09-04T05:13:01.373Z,991.18
2018-09-04T05:14:11.507Z,991.19
2018-09-04T05:15:21.630Z,991.18
2018-09-04T05:16:31.483Z,991.18
2018-09-04T05:17:41.326Z,991.18
2018-09-04T05:18:50.948Z,991.24
2018-09-04T05:20:01.072Z,991.25
2018-09-04T05:21:10.924Z,991.22
2018-09-04T05:22:20.770Z,991.2
2018-09-04T05:23:31.043Z,991.22
2018-09-04T05:24:41.221Z,991.23
2018-09-04T05:25:51.086Z,991.22
2018-09-04T05:27:01.220Z,991.26
2018-09-04T05:28:11.357Z,991.27
2018-09-04T05:29:20.695Z,991.26
2018-09-04T05:30:31.387Z,991.24
2018-09-04T05:31:41.240Z,991.27
2018-09-04T05:32:51.368Z,991.29
2018-09-04T05:34:01.230Z,991.26
2018-09-04T05:35:11.078Z,991.26
2018-09-04T05:36:20.716Z,991.2
2018-09-04T05:37:30.571Z,991.22
2018-09-04T05:38:40.439Z,991.22
2018-09-04T05:39:50.590Z,991.18
2018-09-04T05:41:00.442Z,991.19
2018-09-04T05:42:10.619Z,991.19
2018-09-04T05:43:20.467Z,991.18
2018-09-04T05:44:30.606Z,991.19
2018-09-04T05:45:40.734Z,991.22
2018-09-04T05:46:50.309Z,991.23
2018-09-04T05:48:00.217Z,991.18
2018-09-04T05:49:10.338Z,991.19
2018-09-04T05:50:20.478Z,991.19
2018-09-04T05:51:30.611Z,991.13
2018-09-04T05:52:40.463Z,991.16
2018-09-04T05:53:50.517Z,991.14
2018-09-04T05:55:00.686Z,991.13
2018-09-04T05:56:10.689Z,991.16
2018-09-04T05:57:19.994Z,991.14
2018-09-04T05:58:30.116Z,991.18
2018-09-04T05:59:40.291Z,991.17
2018-09-04T06:00:50.415Z,991.15
2018-09-04T06:02:00.266Z,991.13
2018-09-04T06:03:09.894Z,991.11
2018-09-04T06:04:20.024Z,991.13
2018-09-04T06:05:29.879Z,991.14
2018-09-04T06:06:39.731Z,991.14
2018-09-04T06:07:49.590Z,991.16
2018-09-04T06:08:59.714Z,991.22
2018-09-04T06:10:09.846Z,991.2
2018-09-04T06:11:19.766Z,991.19
2018-09-04T06:12:29.617Z,991.22
2018-09-04T06:13:39.520Z,991.2
2018-09-04T06:14:49.879Z,991.2
2018-09-04T06:15:59.755Z,991.17
2018-09-04T06:17:09.666Z,991.16
2018-09-04T06:18:19.520Z,991.17
2018-09-04T06:19:29.381Z,991.12
2018-09-04T06:20:39.231Z,991.13
2018-09-04T06:21:48.813Z,991.14
2018-09-04T06:22:58.732Z,991.15
2018-09-04T06:24:08.037Z,991.13
2018-09-04T06:25:17.887Z,991.14
2018-09-04T06:26:27.744Z,991.11
2018-09-04T06:27:37.331Z,991.14
2018-09-04T06:28:47.502Z,991.17
2018-09-04T06:29:57.625Z,991.17
2018-09-04T06:31:07.825Z,991.19
2018-09-04T06:32:17.953Z,991.23
2018-09-04T06:33:28.075Z,991.21
2018-09-04T06:34:38.304Z,991.22
2018-09-04T06:35:48.151Z,991.23
2018-09-04T06:36:57.732Z,991.24
2018-09-04T06:38:06.758Z,991.19
2018-09-04T06:39:16.338Z,991.17
2018-09-04T06:40:26.396Z,991.16
2018-09-04T06:41:36.251Z,991.13
2018-09-04T06:42:46.374Z,991.16
2018-09-04T06:44:18.451Z,991.18
2018-09-04T06:45:28.599Z,991.14
2018-09-04T06:46:39.091Z,991.18
2018-09-04T06:47:49.464Z,991.19
2018-09-04T06:48:59.321Z,991.18
2018-09-04T06:50:08.895Z,991.2
2018-09-04T06:51:18.793Z,991.18
2018-09-04T06:52:28.366Z,991.19
2018-09-04T06:53:38.218Z,991.2
2018-09-04T06:54:48.070Z,991.17
2018-09-04T06:55:58.197Z,991.2
2018-09-04T06:57:08.374Z,991.22
2018-09-04T06:58:17.676Z,991.23
2018-09-04T06:59:27.527Z,991.2
2018-09-04T07:00:37.648Z,991.23
2018-09-04T07:01:47.777Z,991.21
2018-09-04T07:02:57.949Z,991.19
2018-09-04T07:04:07.567Z,991.17
2018-09-04T07:05:16.871Z,991.19
2018-09-04T07:06:26.998Z,991.2
2018-09-04T07:07:36.848Z,991.2
2018-09-04T07:08:46.704Z,991.23
2018-09-04T07:09:56.837Z,991.23
2018-09-04T07:11:06.143Z,991.27
2018-09-04T07:12:16.269Z,991.24
2018-09-04T07:13:26.120Z,991.25
2018-09-04T07:14:35.966Z,991.21
2018-09-04T07:15:45.819Z,991.2
2018-09-04T07:16:55.687Z,991.2
2018-09-04T07:18:06.272Z,991.22
2018-09-04T07:19:15.845Z,991.2
2018-09-04T07:20:25.751Z,991.17
2018-09-04T07:21:35.607Z,991.19
2018-09-04T07:22:45.729Z,991.18
2018-09-04T07:23:55.861Z,991.2
2018-09-04T07:25:05.547Z,991.23
2018-09-04T07:26:15.723Z,991.25
2018-09-04T07:27:25.861Z,991.25
2018-09-04T07:28:35.716Z,991.28
2018-09-04T07:29:45.857Z,991.25
2018-09-04T07:30:55.435Z,991.26
2018-09-04T07:32:05.567Z,991.31
2018-09-04T07:33:15.423Z,991.27
2018-09-04T07:34:25.275Z,991.28
2018-09-04T07:35:35.138Z,991.28
2018-09-04T07:36:45.266Z,991.31
2018-09-04T07:37:55.592Z,991.29
2018-09-04T07:39:05.458Z,991.29
2018-09-04T07:40:15.319Z,991.28
2018-09-04T07:41:25.442Z,991.27
2018-09-04T07:42:35.016Z,991.27
2018-09-04T07:43:45.346Z,991.26
2018-09-04T07:44:55.482Z,991.27
2018-09-04T07:46:05.333Z,991.24
2018-09-04T07:47:14.648Z,991.3
2018-09-04T07:48:24.781Z,991.25
2018-09-04T07:49:34.678Z,991.3
2018-09-04T07:50:44.817Z,991.27
2018-09-04T07:51:54.941Z,991.33
2018-09-04T07:53:04.520Z,991.31
2018-09-04T07:54:14.393Z,991.3
2018-09-04T07:55:24.528Z,991.37
2018-09-04T07:56:34.664Z,991.35
2018-09-04T07:57:44.795Z,991.32
2018-09-04T07:58:54.650Z,991.32
2018-09-04T08:00:04.504Z,991.3
2018-09-04T08:01:13.889Z,991.27
2018-09-04T08:02:23.471Z,991.3
2018-09-04T08:03:33.053Z,991.26
2018-09-04T08:04:42.628Z,991.26
2018-09-04T08:05:51.931Z,991.27
2018-09-04T08:07:02.222Z,991.27
2018-09-04T08:08:12.350Z,991.25
2018-09-04T08:09:22.479Z,991.28
2018-09-04T08:10:32.604Z,991.31
2018-09-04T08:11:42.747Z,991.27
2018-09-04T08:12:52.322Z,991.28
2018-09-04T08:14:02.456Z,991.31
2018-09-04T08:15:12.588Z,991.31
2018-09-04T08:16:22.249Z,991.27
2018-09-04T08:17:32.987Z,991.27
2018-09-04T08:18:43.138Z,991.25
2018-09-04T08:19:52.992Z,991.29
2018-09-04T08:21:03.125Z,991.28
2018-09-04T08:22:12.986Z,991.31
2018-09-04T08:23:22.852Z,991.28
2018-09-04T08:24:32.985Z,991.28
2018-09-04T08:25:42.857Z,991.28
2018-09-04T08:26:52.707Z,991.27
2018-09-04T08:28:02.015Z,991.24
2018-09-04T08:29:12.145Z,991.28
2018-09-04T08:30:22.282Z,991.26
2018-09-04T08:31:32.150Z,991.27
2018-09-04T08:32:42.347Z,991.29
2018-09-04T08:33:52.924Z,991.28
2018-09-04T08:35:02.500Z,991.3
2018-09-04T08:36:12.356Z,991.29
2018-09-04T08:37:22.215Z,991.31
2018-09-04T08:38:32.345Z,991.31
2018-09-04T08:39:42.212Z,991.28
2018-09-04T08:40:51.836Z,991.24
2018-09-04T08:42:01.967Z,991.28
2018-09-04T08:43:11.834Z,991.24
2018-09-04T08:44:21.964Z,991.25
2018-09-04T08:45:32.094Z,991.19
2018-09-04T08:46:41.965Z,991.2
2018-09-04T08:47:52.135Z,991.2
2018-09-04T08:49:01.799Z,991.21
2018-09-04T08:50:11.657Z,991.24
2018-09-04T08:51:21.516Z,991.24
2018-09-04T08:52:31.660Z,991.23
2018-09-04T08:53:41.952Z,991.24
2018-09-04T08:54:51.834Z,991.18
2018-09-04T08:56:01.697Z,991.25
2018-09-04T08:57:11.833Z,991.23
2018-09-04T08:58:21.961Z,991.21
2018-09-04T08:59:32.003Z,991.26
2018-09-04T09:00:41.588Z,991.24
2018-09-04T09:01:51.714Z,991.24
2018-09-04T09:03:00.745Z,991.2
2018-09-04T09:04:10.874Z,991.21
2018-09-04T09:05:21.065Z,991.21
2018-09-04T09:06:31.107Z,991.18
2018-09-04T09:07:41.289Z,991.2
2018-09-04T09:08:51.149Z,991.21
2018-09-04T09:10:01.093Z,991.16
2018-09-04T09:11:10.952Z,991.2
2018-09-04T09:12:20.859Z,991.2
2018-09-04T09:13:31.013Z,991.17
2018-09-04T09:14:40.592Z,991.15
2018-09-04T09:15:50.721Z,991.11
2018-09-04T09:17:00.843Z,991.07
2018-09-04T09:18:10.695Z,991.07
2018-09-04T09:19:20.831Z,991.05
2018-09-04T09:20:30.685Z,991.03
2018-09-04T09:21:40.822Z,991.07
2018-09-04T09:22:50.753Z,991.08
2018-09-04T09:24:01.116Z,991.07
2018-09-04T09:25:10.988Z,991.06
2018-09-04T09:26:21.133Z,991.08
2018-09-04T09:27:31.263Z,991.09
2018-09-04T09:28:41.391Z,991.08
2018-09-04T09:29:51.524Z,991.06
2018-09-04T09:31:00.831Z,991.05
2018-09-04T09:32:10.963Z,991.05
2018-09-04T09:33:20.819Z,991.02
2018-09-04T09:34:30.400Z,991.03
2018-09-04T09:35:40.590Z,991
2018-09-04T09:36:50.574Z,990.98
2018-09-04T09:38:01.401Z,990.99
2018-09-04T09:39:11.543Z,990.95
2018-09-04T09:40:21.826Z,990.98
2018-09-04T09:41:31.956Z,990.91
2018-09-04T09:42:42.087Z,990.94
2018-09-04T09:43:51.992Z,990.95
2018-09-04T09:45:01.579Z,990.92
2018-09-04T09:46:11.446Z,990.93
2018-09-04T09:47:21.576Z,990.96
2018-09-04T09:48:31.723Z,990.97
2018-09-04T09:49:41.848Z,991
2018-09-04T09:50:51.723Z,990.99
2018-09-04T09:52:01.947Z,991.01
2018-09-04T09:53:11.652Z,991.01
2018-09-04T09:54:22.779Z,990.98
2018-09-04T09:55:32.362Z,990.99
2018-09-04T09:56:42.583Z,990.98
2018-09-04T09:57:52.813Z,990.97
2018-09-04T09:59:03.039Z,990.96
2018-09-04T10:00:12.926Z,990.95
2018-09-04T10:01:23.285Z,990.96
2018-09-04T10:02:33.102Z,990.99
2018-09-04T10:03:42.681Z,990.97
2018-09-04T10:04:52.348Z,990.97
2018-09-04T10:06:02.478Z,991
2018-09-04T10:07:12.613Z,991.01
2018-09-04T10:08:22.581Z,990.99
2018-09-04T10:09:36.127Z,990.99
2018-09-04T10:10:46.143Z,990.98
2018-09-04T10:11:56.302Z,990.94
2018-09-04T10:13:05.887Z,990.98
2018-09-04T10:14:16.020Z,990.92
2018-09-04T10:15:26.156Z,990.97
2018-09-04T10:16:36.297Z,990.93
2018-09-04T10:17:46.156Z,990.94
2018-09-04T10:18:56.286Z,990.91
2018-09-04T10:20:06.140Z,990.9
2018-09-04T10:21:16.072Z,990.88
2018-09-04T10:22:26.224Z,990.86
2018-09-04T10:23:36.354Z,990.91
2018-09-04T10:24:46.207Z,990.84
2018-09-04T10:25:55.516Z,990.87
2018-09-04T10:27:05.096Z,990.87
2018-09-04T10:28:14.679Z,990.81
2018-09-04T10:29:24.261Z,990.79
2018-09-04T10:30:33.842Z,990.8
2018-09-04T10:31:43.976Z,990.81
2018-09-04T10:32:53.837Z,990.76
2018-09-04T10:34:03.973Z,990.78
2018-09-04T10:35:13.550Z,990.75
2018-09-04T10:36:23.576Z,990.74
2018-09-04T10:37:33.901Z,990.7
2018-09-04T10:38:43.755Z,990.72
2018-09-04T10:39:53.890Z,990.69
2018-09-04T10:41:03.745Z,990.68
2018-09-04T10:42:13.921Z,990.65
2018-09-04T10:43:23.776Z,990.66
2018-09-04T10:44:33.234Z,990.64
2018-09-04T10:45:43.372Z,990.68
2018-09-04T10:46:53.504Z,990.65
2018-09-04T10:48:03.085Z,990.64
2018-09-04T10:49:13.208Z,990.63
2018-09-04T10:50:22.787Z,990.58
2018-09-04T10:51:32.927Z,990.64
2018-09-04T10:52:43.053Z,990.57
2018-09-04T10:53:52.919Z,990.61
2018-09-04T10:55:02.225Z,990.54
2018-09-04T10:56:12.090Z,990.5
2018-09-04T10:57:22.235Z,990.47
2018-09-04T10:58:32.414Z,990.5
2018-09-04T10:59:41.994Z,990.5
2018-09-04T11:00:51.576Z,990.51
2018-09-04T11:02:01.715Z,990.56
2018-09-04T11:03:11.712Z,990.55
2018-09-04T11:04:21.854Z,990.54
2018-09-04T11:05:31.990Z,990.54
2018-09-04T11:06:41.856Z,990.58
2018-09-04T11:07:51.991Z,990.52
2018-09-04T11:09:01.600Z,990.54
2018-09-04T11:10:11.362Z,990.56
2018-09-04T11:11:21.497Z,990.55
2018-09-04T11:12:31.350Z,990.57
2018-09-04T11:13:41.479Z,990.61
2018-09-04T11:14:51.612Z,990.63
2018-09-04T11:16:00.916Z,990.72
2018-09-04T11:17:10.774Z,990.65
2018-09-04T11:18:20.915Z,990.7
2018-09-04T11:19:31.058Z,990.67
2018-09-04T11:20:40.916Z,990.6
2018-09-04T11:21:51.063Z,990.63
2018-09-04T11:23:01.202Z,990.6
2018-09-04T11:24:10.798Z,990.61
2018-09-04T11:25:20.655Z,990.58
2018-09-04T11:26:29.975Z,990.59
2018-09-04T11:27:39.845Z,990.56
2018-09-04T11:28:49.435Z,990.56
2018-09-04T11:29:59.292Z,990.57
2018-09-04T11:31:09.488Z,990.57
2018-09-04T11:32:19.358Z,990.48
2018-09-04T11:33:29.232Z,990.47
2018-09-04T11:34:39.104Z,990.49
2018-09-04T11:35:48.975Z,990.54
2018-09-04T11:36:59.157Z,990.5
2018-09-04T11:38:08.766Z,990.46
2018-09-04T11:39:18.906Z,990.51
2018-09-04T11:40:29.058Z,990.41
2018-09-04T11:41:39.659Z,990.39
2018-09-04T11:42:49.584Z,990.36
2018-09-04T11:43:59.458Z,990.42
2018-09-04T11:45:09.330Z,990.42
2018-09-04T11:46:18.933Z,990.37
2018-09-04T11:47:29.084Z,990.41
2018-09-04T11:48:39.150Z,990.36
2018-09-04T11:49:48.751Z,990.39
2018-09-04T11:50:58.617Z,990.31
2018-09-04T11:52:08.481Z,990.32
2018-09-04T11:53:18.150Z,990.26
2018-09-04T11:54:28.067Z,990.25
2018-09-04T11:55:37.933Z,990.26
2018-09-04T11:56:47.801Z,990.27
2018-09-04T11:57:57.945Z,990.21
2018-09-04T11:59:08.086Z,990.25
2018-09-04T12:00:18.004Z,990.25
2018-09-04T12:01:27.884Z,990.24
2018-09-04T12:02:38.026Z,990.22
2018-09-04T12:03:47.897Z,990.22
2018-09-04T12:04:57.499Z,990.23
2018-09-04T12:06:07.370Z,990.27
2018-09-04T12:07:17.524Z,990.18
2018-09-04T12:08:27.398Z,990.19
2018-09-04T12:09:37.263Z,990.23
2018-09-04T12:10:47.132Z,990.21
2018-09-04T12:11:57.052Z,990.28
2018-09-04T12:13:06.950Z,990.28
2018-09-04T12:14:17.719Z,990.27
2018-09-04T12:15:27.050Z,990.25
2018-09-04T12:16:36.924Z,990.25
2018-09-04T12:17:46.523Z,990.22
2018-09-04T12:18:56.719Z,990.19
2018-09-04T12:20:06.743Z,990.18
2018-09-04T12:21:16.949Z,990.18
2018-09-04T12:22:27.474Z,990.25
2018-09-04T12:23:37.122Z,990.23
2018-09-04T12:24:47.275Z,990.19
2018-09-04T12:25:57.857Z,990.2
2018-09-04T12:27:08.002Z,990.2
2018-09-04T12:28:18.610Z,990.2
2018-09-04T12:29:28.808Z,990.21
2018-09-04T12:30:38.678Z,990.2
2018-09-04T12:31:48.818Z,990.13
2018-09-04T12:32:58.694Z,990.14
2018-09-04T12:34:08.315Z,990.15
2018-09-04T12:35:18.515Z,990.12
2018-09-04T12:36:28.703Z,990.13
2018-09-04T12:37:38.571Z,990.12
2018-09-04T12:38:48.163Z,990.14
2018-09-04T12:39:58.304Z,990.13
2018-09-04T12:41:07.681Z,990.15
2018-09-04T12:42:17.009Z,990.13
2018-09-04T12:43:26.749Z,990.07
2018-09-04T12:44:36.079Z,990.09
2018-09-04T12:45:45.674Z,990.02
2018-09-04T12:46:55.620Z,990.08
2018-09-04T12:48:05.845Z,990.08
2018-09-04T12:49:16.797Z,990.07
2018-09-04T12:50:26.675Z,990.14
2018-09-04T12:51:36.273Z,990.1
2018-09-04T12:52:46.200Z,990.17
2018-09-04T12:53:56.069Z,990.18
2018-09-04T12:55:05.389Z,990.15
2018-09-04T12:56:14.985Z,990.15
2018-09-04T12:57:25.126Z,990.16
2018-09-04T12:58:35.319Z,990.1
2018-09-04T12:59:45.224Z,990.12
2018-09-04T13:00:55.478Z,990.13
2018-09-04T13:02:05.078Z,990.1
2018-09-04T13:03:14.681Z,990.12
2018-09-04T13:04:24.561Z,990.09
2018-09-04T13:05:34.443Z,990.04
2018-09-04T13:06:44.308Z,990.08
2018-09-04T13:07:54.177Z,990.04
2018-09-04T13:09:04.172Z,990.09
2018-09-04T13:10:14.786Z,990.13
2018-09-04T13:11:24.664Z,990.1
2018-09-04T13:12:34.812Z,990.11
2018-09-04T13:13:44.956Z,990.11
2018-09-04T13:14:54.881Z,990.14
2018-09-04T13:16:04.817Z,990.14
2018-09-04T13:17:14.887Z,990.13
2018-09-04T13:18:24.756Z,990.1
2018-09-04T13:19:34.354Z,990.08
2018-09-04T13:20:44.223Z,990.1
2018-09-04T13:21:54.181Z,990.1
2018-09-04T13:23:04.923Z,990.1
2018-09-04T13:24:14.794Z,990.1
2018-09-04T13:25:24.671Z,990.12
2018-09-04T13:26:34.544Z,990.09
2018-09-04T13:27:44.698Z,990.08
2018-09-04T13:28:54.567Z,990.06
2018-09-04T13:30:04.717Z,990.09
2018-09-04T13:31:14.592Z,990.08
2018-09-04T13:32:24.184Z,990.02
2018-09-04T13:33:34.390Z,990
2018-09-04T13:34:44.271Z,990
2018-09-04T13:35:54.418Z,989.98
2018-09-04T13:37:04.019Z,990.01
2018-09-04T13:38:13.349Z,990.04
2018-09-04T13:39:23.562Z,990
2018-09-04T13:40:33.704Z,989.99
2018-09-04T13:41:43.577Z,990.01
2018-09-04T13:42:53.451Z,989.98
2018-09-04T13:44:03.602Z,989.96
2018-09-04T13:45:13.539Z,990.01
2018-09-04T13:46:23.141Z,989.97
2018-09-04T13:47:33.013Z,989.9
2018-09-04T13:48:42.888Z,989.84
2018-09-04T13:49:52.771Z,989.86
2018-09-04T13:51:02.912Z,989.93
2018-09-04T13:52:13.059Z,989.87
2018-09-04T13:53:23.202Z,989.8
2018-09-04T13:54:33.351Z,989.88
2018-09-04T13:55:42.946Z,989.99
2018-09-04T13:56:52.544Z,989.76
2018-09-04T13:58:02.571Z,989.68
2018-09-04T13:59:12.713Z,989.69
2018-09-04T14:00:22.867Z,989.68
2018-09-04T14:01:33.013Z,989.72
2018-09-04T14:02:43.158Z,989.74
2018-09-04T14:03:53.297Z,989.72
2018-09-04T14:05:02.886Z,989.76
2018-09-04T14:06:12.755Z,989.8
2018-09-04T14:07:22.632Z,989.95
2018-09-04T14:08:32.780Z,990.13
2018-09-04T14:09:42.918Z,990.16
2018-09-04T14:10:53.061Z,990.16
2018-09-04T14:12:03.247Z,990.14
2018-09-04T14:13:13.395Z,990.1
2018-09-04T14:14:23.594Z,990.14
2018-09-04T14:15:33.463Z,990.05
2018-09-04T14:16:43.629Z,990.05
2018-09-04T14:17:53.802Z,990.02
2018-09-04T14:19:03.671Z,989.99
2018-09-04T14:20:13.867Z,990.02
2018-09-04T14:21:24.012Z,990.05
2018-09-04T14:22:33.701Z,990.02
2018-09-04T14:23:44.104Z,990
2018-09-04T14:24:54.254Z,989.94
2018-09-04T14:26:04.171Z,989.96
2018-09-04T14:27:14.372Z,989.94
2018-09-04T14:28:40.965Z,989.95
2018-09-04T14:30:15.927Z,989.96
2018-09-04T14:31:26.244Z,989.99
2018-09-04T14:32:36.122Z,989.98
2018-09-04T14:33:45.993Z,989.97
2018-09-04T14:34:56.155Z,989.99
2018-09-04T14:36:06.065Z,990
2018-09-04T14:37:16.366Z,989.99